createdAt,value
2023-01-28T00:07:53.268Z,101874.00
2023-01-28T00:17:53.404Z,101878.00
2023-01-28T00:27:53.331Z,101872.00
2023-01-28T00:37:53.649Z,101862.00
2023-01-28T00:47:54.459Z,101862.00
2023-01-28T00:57:54.349Z,101858.00
2023-01-28T01:07:54.375Z,101854.00
2023-01-28T01:17:54.528Z,101864.00
2023-01-28T01:27:54.348Z,101868.00
2023-01-28T01:37:54.443Z,101866.00
2023-01-28T01:47:54.490Z,101868.00
2023-01-28T01:57:54.574Z,101868.00
2023-01-28T02:07:55.031Z,101868.00
2023-01-28T02:17:55.414Z,101872.00
2023-01-28T02:27:55.470Z,101880.00
2023-01-28T02:37:55.584Z,101888.00
2023-01-28T02:47:58.703Z,101895.00
2023-01-28T02:57:58.604Z,101905.00
2023-01-28T03:07:58.451Z,101911.00
2023-01-28T03:18:17.028Z,101919.00
2023-01-28T03:28:36.403Z,101921.00
2023-01-28T03:38:43.163Z,101915.00
2023-01-28T03:48:45.047Z,101913.00
2023-01-28T03:58:53.780Z,101919.00
2023-01-28T04:09:13.959Z,101925.00
2023-01-28T04:19:15.939Z,101923.00
2023-01-28T04:29:16.693Z,101931.00
2023-01-28T04:39:18.510Z,101942.00
2023-01-28T04:49:26.315Z,101952.00
2023-01-28T04:59:26.616Z,101958.00
2023-01-28T05:09:26.628Z,101960.00
2023-01-28T05:19:26.720Z,101960.00
2023-01-28T05:29:27.619Z,101958.00
2023-01-28T05:39:27.651Z,101956.00
2023-01-28T05:49:35.359Z,101960.00
2023-01-28T05:59:35.785Z,101974.00
2023-01-28T06:09:36.084Z,101986.00
2023-01-28T06:19:36.929Z,101993.00
2023-01-28T06:29:36.650Z,101995.00
2023-01-28T06:39:36.660Z,101987.00
2023-01-28T06:49:36.680Z,101991.00
2023-01-28T06:59:36.705Z,102001.00
2023-01-28T07:09:36.736Z,102005.00
2023-01-28T07:19:36.866Z,101999.00
2023-01-28T07:29:36.699Z,101993.00
2023-01-28T07:39:36.763Z,101995.00
2023-01-28T07:49:38.683Z,101999.00
2023-01-28T07:59:38.723Z,102007.00
2023-01-28T08:09:38.711Z,102013.00
2023-01-28T08:19:38.823Z,102027.00
2023-01-28T08:29:38.739Z,102046.00
2023-01-28T08:39:38.758Z,102054.00
2023-01-28T08:49:38.891Z,102064.00
2023-01-28T08:59:41.469Z,102068.00
2023-01-28T09:09:41.812Z,102090.00
2023-01-28T09:19:41.909Z,102112.00
2023-01-28T09:29:41.828Z,102125.00
2023-01-28T09:39:41.867Z,102129.00
2023-01-28T09:49:41.880Z,102133.00
2023-01-28T09:59:41.955Z,102137.00
2023-01-28T10:09:42.060Z,102141.00
2023-01-28T10:19:41.913Z,102137.00
2023-01-28T10:29:43.839Z,102137.00
2023-01-28T10:39:43.912Z,102135.00
2023-01-28T10:49:43.940Z,102131.00
2023-01-28T10:59:44.058Z,102133.00
2023-01-28T11:09:43.969Z,102137.00
2023-01-28T11:19:43.952Z,102145.00
2023-01-28T11:29:44.071Z,102145.00
2023-01-28T11:39:44.087Z,102147.00
2023-01-28T11:49:43.994Z,102145.00
2023-01-28T11:59:44.148Z,102137.00
2023-01-28T12:09:44.032Z,102123.00
2023-01-28T12:19:44.033Z,102118.00
2023-01-28T12:29:46.007Z,102125.00
2023-01-28T12:39:46.086Z,102116.00
2023-01-28T12:49:46.349Z,102094.00
2023-01-28T12:59:46.317Z,102072.00
2023-01-28T13:09:49.438Z,102040.00
2023-01-28T13:19:49.135Z,102011.00
2023-01-28T13:29:49.682Z,101995.00
2023-01-28T13:39:50.287Z,102013.00
2023-01-28T13:49:50.248Z,102025.00
2023-01-28T13:59:50.217Z,102038.00
2023-01-28T14:09:50.162Z,102052.00
2023-01-28T14:19:50.305Z,102056.00
2023-01-28T14:29:50.287Z,102058.00
2023-01-28T14:39:50.299Z,102054.00
2023-01-28T14:49:50.279Z,102038.00
2023-01-28T14:59:50.301Z,102023.00
2023-01-28T15:09:50.222Z,102009.00
2023-01-28T15:19:50.275Z,102019.00
2023-01-28T15:29:50.522Z,102023.00
2023-01-28T15:39:50.292Z,102029.00
2023-01-28T15:49:50.398Z,102036.00
2023-01-28T15:59:50.855Z,102034.00
2023-01-28T16:09:51.270Z,102054.00
2023-01-28T16:19:51.315Z,102070.00
2023-01-28T16:29:51.349Z,102092.00
2023-01-28T16:39:51.301Z,102110.00
2023-01-28T16:49:51.426Z,102123.00
2023-01-28T16:59:51.558Z,102131.00
2023-01-28T17:09:51.452Z,102131.00
2023-01-28T17:19:51.381Z,102120.00
2023-01-28T17:29:51.404Z,102120.00
2023-01-28T17:39:51.374Z,102114.00
2023-01-28T17:49:51.450Z,102108.00
2023-01-28T17:59:51.652Z,102116.00
2023-01-28T18:09:53.774Z,102149.00
2023-01-28T18:19:54.672Z,102157.00
2023-01-28T18:29:57.151Z,102168.00
2023-01-28T18:39:57.549Z,102176.00
2023-01-28T18:49:57.508Z,102180.00
2023-01-28T18:59:57.659Z,102182.00
2023-01-28T19:09:57.562Z,102192.00
2023-01-28T19:19:57.617Z,102196.00
2023-01-28T19:29:57.532Z,102196.00
2023-01-28T19:39:57.560Z,102204.00
2023-01-28T19:49:57.616Z,102206.00
2023-01-28T19:59:57.603Z,102210.00
2023-01-28T20:09:57.566Z,102217.00
2023-01-28T20:19:57.621Z,102213.00
2023-01-28T20:29:57.598Z,102213.00
2023-01-28T20:39:57.739Z,102213.00
2023-01-28T20:49:57.595Z,102204.00
2023-01-28T20:59:57.734Z,102190.00
2023-01-28T21:09:57.745Z,102184.00
2023-01-28T21:19:57.801Z,102184.00
2023-01-28T21:29:57.709Z,102172.00
2023-01-28T21:40:00.772Z,102165.00
2023-01-28T21:50:00.735Z,102159.00
2023-01-28T22:00:01.153Z,102159.00
2023-01-28T22:10:01.957Z,102151.00
2023-01-28T22:20:02.059Z,102155.00
2023-01-28T22:30:01.754Z,102165.00
2023-01-28T22:40:01.892Z,102172.00
2023-01-28T22:50:01.847Z,102174.00
2023-01-28T23:00:01.752Z,102180.00
2023-01-28T23:10:01.924Z,102182.00
2023-01-28T23:20:24.191Z,102180.00
2023-01-28T23:30:24.848Z,102174.00
2023-01-28T23:40:26.603Z,102170.00
2023-01-28T23:50:26.803Z,102166.00
